createdAt,value
2019-03-30T00:00:33.089Z,19.07
2019-03-30T00:03:03.206Z,21.40
2019-03-30T00:05:33.339Z,18.50
2019-03-30T00:08:03.395Z,18.57
2019-03-30T00:10:33.542Z,21.57
2019-03-30T00:13:04.825Z,18.47
2019-03-30T00:15:34.538Z,19.60
2019-03-30T00:18:05.211Z,20.53
2019-03-30T00:20:34.939Z,23.03
2019-03-30T00:23:05.651Z,20.13
2019-03-30T00:25:38.084Z,22.03
2019-03-30T00:28:08.483Z,17.80
2019-03-30T00:30:38.986Z,21.37
2019-03-30T00:33:09.018Z,21.63
2019-03-30T00:35:39.082Z,20.43
2019-03-30T00:38:08.837Z,19.60
2019-03-30T00:40:39.274Z,19.70
2019-03-30T00:43:10.397Z,23.83
2019-03-30T00:45:41.810Z,20.77
2019-03-30T00:48:11.783Z,21.30
2019-03-30T00:50:43.583Z,18.13
2019-03-30T00:53:13.933Z,22.13
2019-03-30T00:55:47.927Z,23.10
2019-03-30T00:58:17.512Z,22.53
2019-03-30T01:00:47.226Z,22.07
2019-03-30T01:03:16.899Z,22.60
2019-03-30T01:05:47.209Z,21.33
2019-03-30T01:08:18.474Z,20.77
2019-03-30T01:10:48.203Z,21.33
2019-03-30T01:13:21.510Z,20.20
2019-03-30T01:15:51.664Z,17.97
2019-03-30T01:18:21.725Z,18.57
2019-03-30T01:20:52.545Z,20.33
2019-03-30T01:23:23.594Z,20.67
2019-03-30T01:25:53.525Z,19.90
2019-03-30T01:28:23.267Z,19.50
2019-03-30T01:30:53.428Z,19.10
2019-03-30T01:33:23.246Z,19.47
2019-03-30T01:35:57.532Z,19.27
2019-03-30T01:38:28.825Z,21.47
2019-03-30T01:40:59.761Z,19.90
2019-03-30T01:43:29.934Z,20.47
2019-03-30T01:46:01.575Z,20.33
2019-03-30T01:48:34.664Z,20.20
2019-03-30T01:51:04.975Z,22.83
2019-03-30T01:53:34.663Z,18.57
2019-03-30T01:56:05.037Z,19.87
2019-03-30T01:58:35.877Z,19.47
2019-03-30T02:01:05.808Z,19.73
2019-03-30T02:03:36.836Z,19.33
2019-03-30T02:06:06.794Z,17.73
2019-03-30T02:08:37.302Z,17.80
2019-03-30T02:11:07.164Z,19.97
2019-03-30T02:13:37.645Z,15.90
2019-03-30T02:16:07.917Z,17.50
2019-03-30T02:18:37.853Z,16.77
2019-03-30T02:21:08.752Z,20.93
2019-03-30T02:23:38.716Z,17.50
2019-03-30T02:26:09.565Z,19.97
2019-03-30T02:31:09.386Z,17.35
2019-03-30T02:33:39.841Z,18.95
2019-03-30T02:36:12.570Z,17.70
2019-03-30T02:38:45.200Z,18.37
2019-03-30T02:41:14.856Z,17.92
2019-03-30T02:43:45.284Z,17.07
2019-03-30T02:46:15.725Z,16.85
2019-03-30T02:48:46.182Z,13.93
2019-03-30T02:51:17.604Z,15.00
2019-03-30T02:53:48.978Z,12.13
2019-03-30T03:28:37.484Z,14.07
2019-03-30T03:31:07.633Z,13.13
2019-03-30T03:33:37.222Z,16.10
2019-03-30T03:36:09.644Z,14.23
2019-03-30T03:38:41.603Z,12.47
2019-03-30T03:41:12.223Z,13.15
2019-03-30T03:43:42.268Z,14.30
2019-03-30T03:46:12.904Z,12.85
2019-03-30T03:48:42.995Z,15.03
2019-03-30T03:51:25.536Z,13.13
2019-03-30T03:53:45.762Z,14.50
2019-03-30T03:56:16.564Z,16.57
2019-03-30T03:58:48.274Z,13.78
2019-03-30T04:01:20.409Z,14.87
2019-03-30T04:03:53.242Z,15.70
2019-03-30T04:06:26.122Z,16.37
2019-03-30T04:08:59.207Z,14.60
2019-03-30T04:11:31.926Z,12.93
2019-03-30T04:14:05.505Z,14.50
2019-03-30T04:16:35.809Z,13.35
2019-03-30T04:19:05.609Z,15.43
2019-03-30T04:21:43.852Z,13.83
2019-03-30T04:24:07.843Z,14.30
2019-03-30T04:26:39.449Z,14.90
2019-03-30T04:29:10.887Z,14.60
2019-03-30T04:31:41.331Z,12.03
2019-03-30T04:34:11.711Z,12.00
2019-03-30T04:36:42.423Z,12.27
2019-03-30T04:39:13.032Z,14.97
2019-03-30T04:41:43.191Z,15.63
2019-03-30T04:44:16.662Z,12.77
2019-03-30T04:46:47.170Z,13.70
2019-03-30T04:49:17.515Z,15.40
2019-03-30T04:51:57.333Z,14.57
2019-03-30T04:54:18.944Z,13.87
2019-03-30T04:56:49.483Z,14.07
2019-03-30T04:59:19.613Z,16.97
2019-03-30T05:01:49.830Z,14.37
2019-03-30T05:04:21.683Z,16.77
2019-03-30T05:06:51.842Z,14.70
2019-03-30T05:09:22.138Z,16.03
2019-03-30T05:11:52.490Z,17.95
2019-03-30T05:14:22.952Z,16.55
2019-03-30T05:16:53.327Z,17.87
2019-03-30T05:19:23.635Z,15.57
2019-03-30T05:21:53.227Z,17.63
2019-03-30T05:24:23.196Z,16.87
2019-03-30T05:26:53.600Z,17.93
2019-03-30T05:29:23.912Z,14.83
2019-03-30T05:31:53.897Z,18.37
2019-03-30T05:34:23.985Z,17.63
2019-03-30T05:36:53.672Z,16.70
2019-03-30T05:39:23.392Z,17.20
2019-03-30T05:41:53.927Z,15.00
2019-03-30T05:44:25.909Z,18.03
2019-03-30T05:46:55.574Z,17.80
2019-03-30T05:49:25.517Z,18.27
2019-03-30T05:51:55.608Z,16.53
2019-03-30T05:54:25.741Z,20.57
2019-03-30T05:56:56.019Z,15.37
2019-03-30T05:59:25.764Z,13.90
2019-03-30T06:01:55.915Z,14.70
2019-03-30T06:04:26.950Z,17.30
2019-03-30T06:06:57.773Z,17.40
2019-03-30T06:09:27.995Z,16.40
2019-03-30T06:12:02.049Z,17.43
2019-03-30T06:14:32.341Z,17.97
2019-03-30T06:17:03.537Z,15.78
2019-03-30T06:19:34.397Z,15.77
2019-03-30T06:22:05.281Z,14.30
2019-03-30T06:24:35.702Z,15.40
2019-03-30T06:27:05.930Z,16.35
2019-03-30T06:29:36.008Z,14.43
2019-03-30T06:32:06.438Z,15.48
2019-03-30T06:34:36.505Z,16.13
2019-03-30T06:37:06.308Z,14.68
2019-03-30T06:39:37.206Z,14.17
2019-03-30T06:49:33.380Z,15.50
2019-03-30T06:52:03.450Z,16.63
2019-03-30T06:54:33.880Z,18.13
2019-03-30T06:57:03.550Z,16.73
2019-03-30T06:59:33.894Z,17.60
2019-03-30T07:02:03.548Z,18.93
2019-03-30T07:04:34.090Z,14.17
2019-03-30T07:17:03.692Z,13.87
2019-03-30T07:23:11.822Z,14.93
2019-03-30T07:25:37.704Z,12.60
2019-03-30T07:28:08.598Z,15.30
2019-03-30T07:30:38.937Z,13.73
2019-03-30T07:33:08.661Z,13.20
2019-03-30T07:43:05.060Z,13.45
2019-03-30T07:45:35.120Z,15.90
2019-03-30T10:46:46.428Z,13.13
2019-03-30T10:49:17.666Z,13.67
2019-03-30T10:51:48.532Z,12.83
2019-03-30T10:54:20.597Z,12.07
2019-03-30T10:57:15.769Z,12.50
2019-03-30T10:59:46.407Z,12.77
2019-03-30T11:02:48.392Z,14.00
2019-03-30T11:05:20.341Z,12.50
2019-03-30T11:07:50.283Z,15.97
2019-03-30T11:10:22.409Z,14.57
2019-03-30T11:12:52.912Z,15.77
2019-03-30T11:15:22.849Z,14.60
2019-03-30T11:17:52.911Z,13.67
2019-03-30T11:20:22.484Z,13.07
2019-03-30T11:22:52.811Z,15.20
2019-03-30T11:25:22.760Z,15.03
2019-03-30T11:27:52.807Z,14.07
2019-03-30T11:30:23.093Z,17.07
2019-03-30T11:32:53.267Z,15.17
2019-03-30T11:35:23.492Z,13.73
2019-03-30T11:37:54.285Z,10.70
2019-03-30T11:40:29.973Z,18.83
2019-03-30T11:43:00.941Z,12.67
2019-03-30T11:45:33.490Z,13.27
2019-03-30T11:48:03.681Z,13.67
2019-03-30T11:50:33.813Z,13.47
2019-03-30T11:53:03.497Z,13.70
2019-03-30T11:55:33.391Z,12.57
2019-03-30T11:58:03.386Z,14.57
2019-03-30T12:00:33.004Z,18.23
2019-03-30T12:03:02.976Z,18.07
2019-03-30T12:05:32.698Z,15.23
2019-03-30T12:08:03.311Z,14.77
2019-03-30T12:10:34.690Z,16.27
2019-03-30T12:13:05.282Z,15.30
2019-03-30T12:15:36.251Z,15.60
2019-03-30T12:18:05.886Z,16.47
2019-03-30T12:20:38.759Z,15.13
2019-03-30T12:23:08.820Z,13.37
2019-03-30T12:25:38.896Z,15.07
2019-03-30T12:28:09.513Z,12.60
2019-03-30T12:30:40.822Z,14.80
2019-03-30T12:33:10.422Z,16.43
2019-03-30T12:35:42.379Z,14.50
2019-03-30T12:38:13.234Z,19.10
2019-03-30T12:40:43.355Z,15.50
2019-03-30T12:43:13.342Z,16.70
2019-03-30T12:45:43.736Z,13.33
2019-03-30T12:48:13.595Z,15.30
2019-03-30T12:50:44.632Z,16.17
2019-03-30T12:53:14.902Z,16.17
2019-03-30T12:55:49.392Z,15.20
2019-03-30T12:58:19.421Z,14.97
2019-03-30T13:00:50.717Z,15.53
2019-03-30T13:03:22.312Z,12.27
2019-03-30T13:05:54.092Z,14.20
2019-03-30T13:08:25.917Z,13.47
2019-03-30T13:10:55.693Z,14.33
2019-03-30T13:13:25.929Z,14.83
2019-03-30T13:15:56.517Z,13.98
2019-03-30T13:18:27.531Z,16.13
2019-03-30T13:20:58.559Z,15.67
2019-03-30T13:23:28.870Z,13.20
2019-03-30T13:26:03.840Z,15.53
2019-03-30T13:28:31.355Z,12.23
2019-03-30T13:31:02.590Z,15.23
2019-03-30T13:33:32.864Z,15.17
2019-03-30T13:36:02.898Z,14.13
2019-03-30T13:38:32.640Z,14.77
2019-03-30T13:41:03.203Z,13.50
2019-03-30T13:43:33.246Z,15.23
2019-03-30T13:46:03.221Z,15.53
2019-03-30T13:48:33.140Z,14.00
2019-03-30T13:56:01.852Z,16.27
2019-03-30T13:58:31.789Z,16.30
2019-03-30T14:01:01.899Z,15.07
2019-03-30T14:03:34.164Z,14.07
2019-03-30T14:06:04.930Z,14.07
2019-03-30T14:08:35.954Z,15.63
2019-03-30T14:16:05.979Z,14.57
2019-03-30T14:18:36.503Z,14.03
2019-03-30T14:21:07.797Z,14.87
2019-03-30T14:23:38.856Z,16.10
2019-03-30T14:26:08.662Z,13.93
2019-03-30T14:28:39.233Z,13.43
2019-03-30T14:31:10.417Z,13.97
2019-03-30T14:33:40.604Z,14.10
2019-03-30T14:36:11.553Z,15.03
2019-03-30T14:38:44.318Z,14.73
2019-03-30T14:41:14.364Z,15.30
2019-03-30T14:43:44.979Z,15.75
2019-03-30T14:46:14.669Z,17.80
2019-03-30T14:48:44.676Z,17.73
2019-03-30T14:51:14.350Z,16.25
2019-03-30T14:53:44.571Z,15.80
2019-03-30T14:56:14.926Z,14.57
2019-03-30T14:58:45.439Z,14.70
2019-03-30T15:01:16.017Z,14.07
2019-03-30T15:03:48.052Z,14.17
2019-03-30T15:06:18.581Z,15.10
2019-03-30T15:08:50.785Z,13.80
2019-03-30T15:11:21.183Z,13.27
2019-03-30T15:13:51.449Z,14.37
2019-03-30T15:16:24.135Z,13.00
2019-03-30T15:18:53.752Z,13.43
2019-03-30T15:21:24.606Z,14.13
2019-03-30T15:23:54.286Z,15.67
2019-03-30T15:26:24.267Z,14.30
2019-03-30T15:28:54.350Z,13.23
2019-03-30T15:31:24.299Z,14.97
2019-03-30T15:33:55.518Z,15.10
2019-03-30T15:36:26.550Z,14.70
2019-03-30T15:38:57.018Z,14.40
2019-03-30T15:41:26.654Z,13.47
2019-03-30T15:43:56.589Z,14.17
2019-03-30T15:46:27.394Z,13.10
2019-03-30T15:48:58.669Z,14.23
2019-03-30T15:51:28.691Z,16.63
2019-03-30T15:53:58.994Z,16.15
2019-03-30T15:56:28.958Z,15.77
2019-03-30T15:58:59.017Z,13.30
2019-03-30T16:01:29.891Z,12.87
2019-03-30T16:04:02.526Z,14.30
2019-03-30T16:06:31.287Z,14.23
2019-03-30T16:09:00.926Z,13.20
2019-03-30T16:11:31.273Z,12.37
2019-03-30T16:26:40.981Z,13.47
2019-03-30T16:28:59.639Z,14.68
2019-03-30T16:31:30.220Z,13.27
2019-03-30T16:34:00.184Z,10.93
2019-03-30T16:36:32.207Z,14.87
2019-03-30T16:39:02.149Z,12.17
2019-03-30T16:41:32.945Z,13.50
2019-03-30T16:44:03.038Z,14.35
2019-03-30T16:46:32.938Z,12.53
2019-03-30T16:49:03.357Z,18.87
2019-03-30T16:51:34.641Z,13.50
2019-03-30T16:54:04.533Z,12.90
2019-03-30T16:56:34.890Z,11.20
2019-03-30T16:59:05.136Z,13.97
2019-03-30T17:01:34.790Z,12.97
2019-03-30T17:04:04.804Z,11.73
2019-03-30T17:06:34.700Z,12.57
2019-03-30T17:09:08.838Z,11.83
2019-03-30T17:11:38.351Z,15.30
2019-03-30T17:14:09.535Z,12.63
2019-03-30T17:16:40.199Z,17.83
2019-03-30T17:19:11.182Z,18.17
2019-03-30T17:21:40.978Z,17.87
2019-03-30T17:24:13.077Z,18.07
2019-03-30T17:26:51.570Z,21.67
2019-03-30T17:29:21.942Z,21.17
2019-03-30T17:31:52.830Z,17.67
2019-03-30T17:34:22.727Z,21.97
2019-03-30T17:37:00.214Z,19.93
2019-03-30T17:39:30.784Z,19.47
2019-03-30T17:42:02.979Z,17.57
2019-03-30T17:44:34.150Z,21.30
2019-03-30T17:47:04.711Z,22.13
2019-03-30T17:49:34.666Z,21.47
2019-03-30T17:52:04.644Z,19.47
2019-03-30T17:54:34.656Z,19.27
2019-03-30T17:57:04.414Z,18.30
2019-03-30T17:59:34.922Z,20.13
2019-03-30T18:02:04.680Z,19.20
2019-03-30T18:04:35.289Z,20.43
2019-03-30T18:07:05.896Z,21.90
2019-03-30T18:09:36.303Z,20.47
2019-03-30T18:12:06.246Z,21.67
2019-03-30T18:14:36.227Z,19.60
2019-03-30T18:17:06.407Z,22.87
2019-03-30T18:19:36.357Z,19.37
2019-03-30T18:22:07.076Z,21.43
2019-03-30T18:24:38.401Z,22.77
2019-03-30T18:27:09.036Z,20.93
2019-03-30T18:29:39.661Z,19.27
2019-03-30T18:32:11.076Z,21.50
2019-03-30T18:34:43.004Z,21.20
2019-03-30T18:37:12.679Z,22.10
2019-03-30T18:39:45.722Z,20.33
2019-03-30T18:42:16.073Z,19.70
2019-03-30T18:44:46.118Z,20.80
2019-03-30T18:47:18.080Z,18.93
2019-03-30T18:49:49.609Z,21.87
2019-03-30T18:52:20.325Z,20.03
2019-03-30T18:54:51.169Z,21.07
2019-03-30T18:57:21.807Z,19.47
2019-03-30T18:59:51.390Z,21.20
2019-03-30T19:02:23.186Z,20.90
2019-03-30T19:04:52.970Z,22.73
2019-03-30T19:07:25.554Z,25.93
2019-03-30T19:09:55.986Z,23.90
2019-03-30T19:12:26.019Z,22.80
2019-03-30T19:14:56.524Z,22.93
2019-03-30T19:17:26.206Z,22.03
2019-03-30T19:19:55.815Z,20.70
2019-03-30T19:22:25.719Z,25.33
2019-03-30T19:24:56.119Z,22.60
2019-03-30T19:27:26.116Z,24.63
2019-03-30T19:29:56.998Z,24.03
2019-03-30T19:32:27.072Z,22.17
2019-03-30T19:34:57.375Z,23.63
2019-03-30T19:37:27.455Z,24.93
2019-03-30T19:39:58.696Z,25.13
2019-03-30T19:42:29.182Z,25.87
2019-03-30T19:45:00.390Z,29.40
2019-03-30T19:47:30.151Z,23.17
2019-03-30T19:50:00.256Z,26.57
2019-03-30T19:52:39.848Z,27.13
2019-03-30T19:55:02.369Z,29.00
2019-03-30T19:57:32.295Z,27.37
2019-03-30T20:00:03.016Z,32.63
2019-03-30T20:02:33.466Z,27.03
2019-03-30T20:05:03.169Z,29.47
2019-03-30T20:07:34.014Z,25.63
2019-03-30T20:10:05.252Z,25.90
2019-03-30T20:12:36.662Z,27.33
2019-03-30T20:15:08.337Z,24.10
2019-03-30T20:17:41.660Z,25.37
2019-03-30T20:20:12.494Z,26.87
2019-03-30T20:22:45.436Z,22.03
2019-03-30T20:25:15.674Z,23.70
2019-03-30T20:27:45.221Z,26.30
2019-03-30T20:30:15.134Z,25.07
2019-03-30T20:32:45.870Z,25.20
2019-03-30T20:35:16.278Z,27.63
2019-03-30T20:37:47.116Z,24.50
2019-03-30T20:40:17.927Z,24.93
2019-03-30T20:42:48.851Z,26.47
2019-03-30T20:45:19.116Z,25.47
2019-03-30T20:47:52.470Z,25.53
2019-03-30T20:50:21.937Z,24.40
2019-03-30T20:52:54.996Z,28.40
2019-03-30T20:55:24.740Z,29.73
2019-03-30T20:57:54.826Z,25.07
2019-03-30T21:00:24.569Z,27.70
2019-03-30T21:02:54.492Z,28.07
2019-03-30T21:05:24.102Z,23.70
2019-03-30T21:07:53.914Z,22.37
2019-03-30T21:10:24.045Z,27.23
2019-03-30T21:12:53.670Z,26.70
2019-03-30T21:15:23.591Z,27.57
2019-03-30T21:17:53.763Z,25.20
2019-03-30T21:20:23.381Z,26.87
2019-03-30T21:22:53.378Z,28.53
2019-03-30T21:25:22.926Z,27.63
2019-03-30T21:27:54.143Z,23.50
2019-03-30T21:30:24.133Z,27.70
2019-03-30T21:32:55.075Z,25.00
2019-03-30T21:35:26.785Z,27.80
2019-03-30T21:37:58.578Z,24.77
2019-03-30T21:40:28.131Z,28.47
2019-03-30T21:42:57.842Z,25.90
2019-03-30T21:45:28.081Z,25.13
2019-03-30T21:47:59.606Z,26.53
2019-03-30T21:50:29.878Z,29.57
2019-03-30T21:53:00.442Z,24.37
2019-03-30T21:55:31.318Z,23.70
2019-03-30T21:58:01.397Z,26.07
2019-03-30T22:00:36.525Z,23.43
2019-03-30T22:03:07.208Z,31.50
2019-03-30T22:05:37.538Z,28.07
2019-03-30T22:08:07.307Z,25.03
2019-03-30T22:10:37.726Z,26.13
2019-03-30T22:13:07.759Z,30.47
2019-03-30T22:15:37.405Z,27.90
2019-03-30T22:18:07.997Z,27.82
2019-03-30T22:20:39.941Z,25.72
2019-03-30T22:23:10.646Z,29.75
2019-03-30T22:25:42.234Z,25.82
2019-03-30T22:28:14.111Z,26.27
2019-03-30T22:30:44.043Z,25.03
2019-03-30T22:33:13.737Z,25.33
2019-03-30T22:35:43.502Z,24.37
2019-03-30T22:38:15.379Z,24.45
2019-03-30T22:40:46.963Z,19.87
2019-03-30T22:43:17.145Z,21.53
2019-03-30T22:45:48.571Z,21.43
2019-03-30T22:48:18.331Z,19.33
2019-03-30T22:50:48.342Z,20.03
2019-03-30T22:53:18.844Z,18.40
2019-03-30T22:55:48.996Z,21.13
2019-03-30T22:58:21.326Z,21.33
2019-03-30T23:01:05.252Z,17.73
2019-03-30T23:03:35.417Z,17.20
2019-03-30T23:06:05.262Z,17.13
2019-03-30T23:08:35.827Z,19.43
2019-03-30T23:11:06.224Z,17.50
2019-03-30T23:13:38.914Z,22.17
2019-03-30T23:16:10.654Z,18.67
2019-03-30T23:18:40.637Z,16.47
2019-03-30T23:21:11.940Z,21.27
2019-03-30T23:23:42.374Z,22.27
2019-03-30T23:26:13.099Z,19.20
2019-03-30T23:28:43.139Z,20.23
2019-03-30T23:31:13.265Z,21.77
2019-03-30T23:33:43.333Z,18.83
2019-03-30T23:36:13.044Z,20.87
2019-03-30T23:38:42.816Z,23.53
2019-03-30T23:41:16.020Z,21.30
2019-03-30T23:43:45.774Z,19.80
2019-03-30T23:46:16.339Z,23.40
2019-03-30T23:48:47.298Z,22.27
2019-03-30T23:51:19.065Z,19.63
2019-03-30T23:53:50.442Z,24.23
2019-03-30T23:56:31.198Z,22.13
2019-03-30T23:59:01.140Z,19.17
